createdAt,value
2023-03-15T00:00:11.506Z,99.90
2023-03-15T00:03:15.462Z,99.90
2023-03-15T00:06:18.759Z,99.90
2023-03-15T00:09:24.312Z,99.90
2023-03-15T00:12:27.486Z,99.90
2023-03-15T00:15:30.954Z,99.90
2023-03-15T00:18:34.412Z,99.90
2023-03-15T00:21:37.815Z,99.90
2023-03-15T00:24:42.375Z,99.90
2023-03-15T00:27:45.590Z,99.90
2023-03-15T00:30:48.997Z,99.90
2023-03-15T00:33:53.750Z,99.90
2023-03-15T00:36:59.122Z,99.90
2023-03-15T00:40:03.765Z,99.90
2023-03-15T00:43:07.003Z,99.90
2023-03-15T00:46:11.641Z,99.90
2023-03-15T00:49:14.816Z,99.90
2023-03-15T00:52:18.168Z,99.90
2023-03-15T00:55:23.500Z,99.90
2023-03-15T00:58:27.615Z,99.90
2023-03-15T01:01:31.808Z,99.90
2023-03-15T01:04:36.416Z,99.90
2023-03-15T01:07:39.673Z,99.90
2023-03-15T01:10:44.466Z,99.90
2023-03-15T01:13:48.250Z,99.90
2023-03-15T01:16:52.012Z,99.90
2023-03-15T01:19:55.417Z,99.90
2023-03-15T01:22:58.864Z,99.90
2023-03-15T01:26:04.182Z,99.90
2023-03-15T01:29:07.429Z,99.90
2023-03-15T01:32:11.265Z,99.90
2023-03-15T01:35:14.698Z,99.90
2023-03-15T01:38:17.918Z,99.90
2023-03-15T01:41:24.814Z,99.90
2023-03-15T01:44:50.677Z,99.90
2023-03-15T01:47:54.270Z,99.90
2023-03-15T01:50:59.113Z,99.90
2023-03-15T01:54:07.131Z,99.90
2023-03-15T01:57:17.350Z,99.90
2023-03-15T02:00:22.178Z,99.90
2023-03-15T02:03:37.303Z,99.90
2023-03-15T02:06:46.668Z,99.90
2023-03-15T02:09:58.600Z,99.90
2023-03-15T02:13:04.580Z,99.90
2023-03-15T02:16:09.358Z,99.90
2023-03-15T02:19:33.972Z,99.90
2023-03-15T02:22:46.519Z,99.90
2023-03-15T02:25:56.446Z,99.90
2023-03-15T02:29:01.812Z,99.90
2023-03-15T02:32:05.434Z,99.90
2023-03-15T02:35:09.329Z,99.90
2023-03-15T02:38:12.469Z,99.90
2023-03-15T02:41:19.300Z,99.90
2023-03-15T02:44:29.149Z,99.90
2023-03-15T02:47:34.660Z,99.90
2023-03-15T02:50:38.857Z,99.90
2023-03-15T02:53:42.050Z,99.90
2023-03-15T02:56:45.224Z,99.90
2023-03-15T02:59:50.896Z,99.90
2023-03-15T03:02:54.455Z,99.90
2023-03-15T03:05:57.661Z,99.90
2023-03-15T03:09:04.738Z,99.90
2023-03-15T03:12:08.909Z,99.90
2023-03-15T03:15:14.241Z,99.90
2023-03-15T03:18:18.170Z,99.90
2023-03-15T03:21:21.644Z,99.90
2023-03-15T03:24:26.837Z,99.90
2023-03-15T03:27:31.291Z,99.90
2023-03-15T03:30:38.022Z,99.90
2023-03-15T03:33:41.326Z,99.90
2023-03-15T03:36:45.085Z,99.90
2023-03-15T03:39:51.582Z,99.90
2023-03-15T03:42:54.740Z,99.90
2023-03-15T03:45:59.313Z,99.90
2023-03-15T03:49:03.587Z,99.90
2023-03-15T03:52:08.761Z,99.90
2023-03-15T03:55:13.785Z,99.90
2023-03-15T03:58:18.725Z,99.90
2023-03-15T04:01:31.293Z,99.90
2023-03-15T04:04:35.783Z,99.90
2023-03-15T04:07:40.293Z,99.90
2023-03-15T04:10:46.334Z,99.90
2023-03-15T04:13:49.988Z,99.90
2023-03-15T04:16:55.577Z,99.90
2023-03-15T04:19:59.501Z,99.90
2023-03-15T04:23:07.386Z,99.90
2023-03-15T04:26:17.235Z,99.90
2023-03-15T04:29:43.666Z,99.90
2023-03-15T04:33:11.277Z,99.90
2023-03-15T04:36:33.420Z,99.90
2023-03-15T04:39:39.642Z,99.90
2023-03-15T04:43:18.438Z,99.90
2023-03-15T04:46:52.199Z,99.90
2023-03-15T04:50:05.839Z,99.90
2023-03-15T04:53:22.213Z,99.90
2023-03-15T04:56:54.854Z,99.90
2023-03-15T05:00:17.091Z,99.90
2023-03-15T05:03:52.253Z,99.90
2023-03-15T05:07:09.977Z,99.90
2023-03-15T05:10:34.341Z,99.90
2023-03-15T05:14:03.815Z,99.90
2023-03-15T05:17:28.044Z,99.90
2023-03-15T05:20:49.462Z,99.90
2023-03-15T05:24:20.568Z,99.90
2023-03-15T05:27:46.538Z,99.90
2023-03-15T05:31:12.774Z,99.90
2023-03-15T05:34:45.386Z,99.90
2023-03-15T05:37:59.945Z,99.90
2023-03-15T05:41:24.142Z,99.90
2023-03-15T05:44:58.429Z,99.90
2023-03-15T05:48:20.498Z,99.90
2023-03-15T05:51:33.700Z,99.90
2023-03-15T05:54:55.459Z,99.90
2023-03-15T05:58:31.772Z,99.90
2023-03-15T06:01:57.468Z,99.90
2023-03-15T06:05:08.112Z,99.90
2023-03-15T06:08:12.214Z,99.90
2023-03-15T06:11:18.975Z,99.90
2023-03-15T06:14:24.465Z,99.90
2023-03-15T06:17:31.304Z,99.90
2023-03-15T06:20:34.995Z,99.90
2023-03-15T06:23:44.405Z,99.90
2023-03-15T06:26:47.931Z,99.90
2023-03-15T06:29:53.961Z,99.90
2023-03-15T06:32:59.245Z,99.90
2023-03-15T06:36:02.773Z,99.90
2023-03-15T06:39:06.279Z,99.90
2023-03-15T06:42:10.911Z,99.90
2023-03-15T06:45:17.596Z,99.90
2023-03-15T06:48:22.664Z,99.90
2023-03-15T06:51:25.972Z,99.90
2023-03-15T06:54:29.198Z,99.90
2023-03-15T06:57:33.155Z,99.90
2023-03-15T07:00:38.218Z,99.90
2023-03-15T07:03:41.536Z,99.90
2023-03-15T07:06:44.717Z,99.90
2023-03-15T07:09:47.909Z,99.90
2023-03-15T07:12:51.077Z,99.90
2023-03-15T07:15:56.750Z,99.90
2023-03-15T07:19:00.130Z,99.90
2023-03-15T07:22:03.324Z,99.90
2023-03-15T07:25:07.597Z,99.90
2023-03-15T07:28:10.812Z,99.90
2023-03-15T07:31:16.127Z,99.90
2023-03-15T07:34:19.573Z,99.90
2023-03-15T07:37:22.993Z,99.90
2023-03-15T07:40:26.421Z,99.90
2023-03-15T07:43:30.443Z,99.90
2023-03-15T07:46:47.126Z,99.90
2023-03-15T07:49:50.321Z,99.90
2023-03-15T07:52:53.752Z,99.90
2023-03-15T07:55:57.121Z,99.90
2023-03-15T07:59:00.341Z,99.90
2023-03-15T08:02:05.201Z,99.90
2023-03-15T08:05:10.084Z,99.90
2023-03-15T08:08:13.355Z,99.90
2023-03-15T08:11:16.546Z,99.90
2023-03-15T08:14:19.788Z,99.90
2023-03-15T08:17:24.649Z,99.90
2023-03-15T08:20:29.914Z,99.90
2023-03-15T08:23:33.585Z,99.90
2023-03-15T08:26:36.838Z,99.90
2023-03-15T08:29:40.216Z,99.90
2023-03-15T08:32:47.304Z,99.90
2023-03-15T08:35:54.365Z,99.90
2023-03-15T08:38:58.372Z,99.90
2023-03-15T08:42:01.624Z,99.90
2023-03-15T08:45:07.134Z,99.10
2023-03-15T08:48:14.473Z,97.50
2023-03-15T08:51:20.163Z,97.10
2023-03-15T08:54:23.567Z,95.30
2023-03-15T08:57:29.307Z,95.00
2023-03-15T09:00:32.856Z,98.10
2023-03-15T09:03:37.520Z,95.40
2023-03-15T09:06:42.319Z,97.10
2023-03-15T09:09:48.257Z,95.90
2023-03-15T09:12:53.974Z,97.00
2023-03-15T09:15:58.673Z,95.40
2023-03-15T09:19:03.266Z,97.00
2023-03-15T09:22:16.296Z,94.80
2023-03-15T09:25:28.189Z,92.70
2023-03-15T09:28:31.416Z,91.40
2023-03-15T09:31:35.085Z,81.60
2023-03-15T09:34:42.232Z,80.50
2023-03-15T09:37:46.114Z,69.30
2023-03-15T09:40:50.086Z,66.20
2023-03-15T09:44:09.004Z,54.50
2023-03-15T09:47:24.046Z,48.40
2023-03-15T09:50:34.245Z,38.40
2023-03-15T09:53:41.304Z,31.30
2023-03-15T09:56:51.499Z,27.10
2023-03-15T09:59:56.911Z,24.90
2023-03-15T10:03:07.097Z,10.70
2023-03-15T10:06:18.427Z,10.00
2023-03-15T10:09:24.378Z,1.00
2023-03-15T10:12:31.988Z,1.00
2023-03-15T10:15:44.026Z,1.00
2023-03-15T10:19:03.740Z,1.00
2023-03-15T10:22:19.364Z,1.00
2023-03-15T10:25:26.278Z,1.00
2023-03-15T10:28:34.787Z,1.00
2023-03-15T10:31:44.938Z,1.00
2023-03-15T10:34:52.132Z,1.00
2023-03-15T10:37:57.020Z,1.00
2023-03-15T10:41:01.705Z,1.00
2023-03-15T10:44:08.073Z,1.00
2023-03-15T10:47:23.518Z,1.00
2023-03-15T10:50:29.362Z,1.00
2023-03-15T10:53:34.318Z,1.00
2023-03-15T10:56:44.823Z,1.00
2023-03-15T10:59:58.664Z,1.00
2023-03-15T11:03:05.275Z,1.00
2023-03-15T11:06:22.632Z,1.00
2023-03-15T11:09:28.354Z,1.00
2023-03-15T11:12:33.343Z,1.00
2023-03-15T11:15:36.644Z,1.00
2023-03-15T11:18:48.480Z,1.00
2023-03-15T11:21:52.962Z,1.00
2023-03-15T11:24:59.099Z,1.00
2023-03-15T11:28:02.628Z,1.00
2023-03-15T11:31:09.208Z,1.00
2023-03-15T11:34:18.809Z,1.00
2023-03-15T11:37:25.786Z,1.00
2023-03-15T11:40:34.581Z,1.00
2023-03-15T11:43:48.871Z,1.00
2023-03-15T11:46:58.910Z,1.00
2023-03-15T11:50:02.237Z,1.00
2023-03-15T11:53:07.345Z,1.00
2023-03-15T11:56:45.458Z,1.00
2023-03-15T11:59:49.239Z,1.00
2023-03-15T12:02:55.420Z,1.00
2023-03-15T12:06:05.349Z,1.00
2023-03-15T12:09:40.629Z,1.00
2023-03-15T12:12:48.675Z,1.00
2023-03-15T12:15:53.225Z,1.00
2023-03-15T12:18:59.851Z,1.00
2023-03-15T12:22:03.262Z,1.00
2023-03-15T12:25:13.941Z,1.00
2023-03-15T12:28:26.611Z,1.00
2023-03-15T12:31:45.368Z,1.00
2023-03-15T12:34:50.889Z,1.00
2023-03-15T12:37:54.637Z,1.00
2023-03-15T12:40:59.229Z,1.00
2023-03-15T12:44:34.964Z,1.00
2023-03-15T12:47:47.673Z,1.00
2023-03-15T12:51:01.992Z,1.00
2023-03-15T12:54:06.591Z,1.00
2023-03-15T12:57:13.218Z,1.00
2023-03-15T13:00:18.700Z,1.00
2023-03-15T13:03:24.969Z,1.00
2023-03-15T13:06:43.571Z,1.00
2023-03-15T13:10:23.135Z,1.00
2023-03-15T13:13:51.498Z,1.00
2023-03-15T13:17:05.807Z,1.00
2023-03-15T13:20:36.979Z,1.00
2023-03-15T13:23:44.405Z,1.00
2023-03-15T13:26:55.704Z,1.00
2023-03-15T13:29:58.986Z,1.00
2023-03-15T13:33:18.621Z,1.00
2023-03-15T13:36:25.596Z,1.00
2023-03-15T13:39:31.297Z,1.00
2023-03-15T13:42:34.571Z,1.00
2023-03-15T13:45:39.036Z,1.00
2023-03-15T13:48:43.674Z,1.00
2023-03-15T13:51:50.097Z,1.00
2023-03-15T13:54:55.046Z,1.00
2023-03-15T13:58:00.648Z,1.00
2023-03-15T14:01:09.324Z,1.00
2023-03-15T14:04:18.690Z,1.00
2023-03-15T14:07:29.979Z,1.00
2023-03-15T14:10:36.065Z,1.00
2023-03-15T14:13:51.348Z,1.00
2023-03-15T14:17:05.361Z,1.00
2023-03-15T14:20:16.509Z,1.00
2023-03-15T14:23:25.236Z,1.00
2023-03-15T14:26:29.623Z,1.00
2023-03-15T14:29:35.443Z,1.00
2023-03-15T14:32:51.930Z,1.00
2023-03-15T14:35:58.741Z,1.00
2023-03-15T14:39:03.458Z,1.00
2023-03-15T14:42:07.259Z,1.00
2023-03-15T14:45:11.104Z,1.00
2023-03-15T14:48:16.604Z,1.00
2023-03-15T14:51:23.156Z,1.00
2023-03-15T14:54:29.658Z,1.00
2023-03-15T14:57:32.959Z,1.00
2023-03-15T15:00:36.331Z,1.00
2023-03-15T15:03:41.945Z,1.00
2023-03-15T15:06:50.960Z,1.00
2023-03-15T15:10:00.394Z,1.00
2023-03-15T15:13:07.059Z,1.00
2023-03-15T15:16:11.483Z,1.00
2023-03-15T15:19:15.794Z,1.00
2023-03-15T15:22:20.204Z,1.00
2023-03-15T15:25:26.123Z,1.00
2023-03-15T15:28:36.412Z,1.00
2023-03-15T15:31:46.675Z,1.00
2023-03-15T15:34:50.122Z,1.00
2023-03-15T15:37:53.756Z,1.00
2023-03-15T15:40:58.421Z,1.00
2023-03-15T15:44:01.902Z,1.00
2023-03-15T15:47:05.784Z,1.00
2023-03-15T15:50:12.144Z,1.00
2023-03-15T15:53:19.135Z,1.00
2023-03-15T15:56:33.739Z,1.00
2023-03-15T15:59:37.363Z,1.00
2023-03-15T16:02:40.702Z,1.00
2023-03-15T16:05:44.274Z,1.00
2023-03-15T16:08:49.030Z,1.00
2023-03-15T16:11:55.514Z,13.40
2023-03-15T16:15:05.088Z,13.60
2023-03-15T16:18:11.304Z,15.70
2023-03-15T16:21:18.237Z,16.70
2023-03-15T16:24:26.198Z,22.80
2023-03-15T16:27:31.485Z,25.30
2023-03-15T16:30:35.026Z,29.60
2023-03-15T16:33:38.312Z,36.60
2023-03-15T16:36:43.722Z,39.90
2023-03-15T16:39:52.809Z,41.50
2023-03-15T16:42:58.197Z,42.10
2023-03-15T16:46:06.679Z,44.30
2023-03-15T16:49:14.276Z,44.70
2023-03-15T16:52:19.864Z,43.20
2023-03-15T16:55:27.487Z,42.90
2023-03-15T16:58:32.856Z,40.10
2023-03-15T17:01:39.883Z,37.60
2023-03-15T17:04:47.103Z,34.30
2023-03-15T17:07:52.564Z,35.90
2023-03-15T17:10:55.951Z,34.00
2023-03-15T17:14:01.089Z,33.70
2023-03-15T17:17:04.469Z,33.20
2023-03-15T17:20:10.395Z,36.50
2023-03-15T17:23:15.045Z,40.20
2023-03-15T17:26:20.406Z,37.50
2023-03-15T17:29:28.526Z,40.80
2023-03-15T17:32:32.153Z,41.30
2023-03-15T17:35:41.221Z,35.20
2023-03-15T17:38:51.951Z,37.40
2023-03-15T17:41:58.326Z,32.40
2023-03-15T17:45:16.016Z,35.40
2023-03-15T17:48:21.004Z,34.90
2023-03-15T17:51:26.708Z,34.50
2023-03-15T17:54:29.964Z,36.70
2023-03-15T17:57:33.841Z,36.60
2023-03-15T18:00:40.057Z,40.90
2023-03-15T18:03:48.637Z,38.60
2023-03-15T18:06:54.053Z,42.10
2023-03-15T18:09:57.626Z,43.90
2023-03-15T18:13:00.887Z,44.60
2023-03-15T18:16:07.390Z,45.10
2023-03-15T18:19:10.932Z,44.20
2023-03-15T18:22:17.803Z,42.00
2023-03-15T18:25:22.920Z,38.70
2023-03-15T18:28:26.263Z,36.40
2023-03-15T18:31:31.041Z,36.00
2023-03-15T18:34:34.926Z,44.70
2023-03-15T18:37:38.191Z,47.80
2023-03-15T18:40:41.616Z,46.40
2023-03-15T18:43:49.681Z,49.00
2023-03-15T18:46:54.519Z,41.00
2023-03-15T18:50:04.523Z,35.50
2023-03-15T18:53:13.141Z,35.20
2023-03-15T18:56:20.435Z,31.80
2023-03-15T18:59:25.853Z,30.20
2023-03-15T19:02:31.920Z,31.00
2023-03-15T19:05:39.261Z,30.20
2023-03-15T19:08:43.040Z,31.80
2023-03-15T19:11:47.009Z,31.30
2023-03-15T19:14:52.198Z,31.30
2023-03-15T19:17:56.925Z,35.10
2023-03-15T19:21:00.753Z,36.20
2023-03-15T19:24:05.389Z,39.20
2023-03-15T19:27:08.711Z,43.70
2023-03-15T19:30:16.997Z,48.60
2023-03-15T19:33:21.722Z,51.50
2023-03-15T19:36:25.542Z,57.10
2023-03-15T19:39:29.007Z,59.00
2023-03-15T19:42:32.591Z,66.90
2023-03-15T19:45:35.944Z,69.30
2023-03-15T19:48:41.061Z,69.70
2023-03-15T19:51:44.465Z,75.70
2023-03-15T19:54:49.013Z,81.40
2023-03-15T19:57:52.977Z,87.20
2023-03-15T20:00:57.384Z,91.70
2023-03-15T20:04:04.622Z,92.80
2023-03-15T20:07:11.235Z,93.60
2023-03-15T20:10:15.613Z,95.20
2023-03-15T20:13:21.951Z,95.50
2023-03-15T20:16:26.188Z,97.10
2023-03-15T20:19:34.377Z,98.40
2023-03-15T20:22:40.918Z,98.90
2023-03-15T20:25:45.737Z,99.90
2023-03-15T20:28:50.549Z,99.70
2023-03-15T20:31:54.505Z,99.90
2023-03-15T20:35:02.290Z,99.70
2023-03-15T20:38:09.022Z,99.90
2023-03-15T20:41:20.370Z,99.90
2023-03-15T20:44:26.509Z,99.90
2023-03-15T20:47:32.771Z,99.90
2023-03-15T20:50:39.305Z,99.90
2023-03-15T20:53:44.309Z,99.90
2023-03-15T20:56:47.977Z,99.90
2023-03-15T20:59:52.615Z,99.90
2023-03-15T21:02:56.227Z,99.90
2023-03-15T21:06:01.898Z,99.90
2023-03-15T21:09:06.150Z,99.90
2023-03-15T21:12:09.958Z,99.90
2023-03-15T21:15:17.498Z,99.90
2023-03-15T21:18:23.662Z,99.90
2023-03-15T21:21:28.898Z,99.90
2023-03-15T21:24:40.661Z,99.90
2023-03-15T21:27:46.968Z,99.90
2023-03-15T21:30:52.395Z,99.90
2023-03-15T21:33:55.859Z,99.90
2023-03-15T21:37:00.634Z,99.90
2023-03-15T21:40:06.460Z,99.90
2023-03-15T21:43:09.735Z,99.90
2023-03-15T21:46:14.365Z,99.90
2023-03-15T21:49:17.639Z,99.90
2023-03-15T21:52:23.108Z,99.90
2023-03-15T21:55:26.529Z,99.90
2023-03-15T21:58:30.179Z,99.90
2023-03-15T22:01:33.467Z,99.90
2023-03-15T22:04:36.881Z,99.90
2023-03-15T22:07:42.565Z,99.90
2023-03-15T22:10:46.000Z,99.90
2023-03-15T22:13:49.198Z,99.90
2023-03-15T22:16:52.854Z,99.90
2023-03-15T22:19:56.187Z,99.90
2023-03-15T22:23:04.278Z,99.90
2023-03-15T22:26:07.788Z,99.90
2023-03-15T22:29:11.928Z,99.90
2023-03-15T22:32:15.298Z,99.90
2023-03-15T22:35:19.216Z,99.90
2023-03-15T22:38:24.294Z,99.90
2023-03-15T22:41:27.510Z,99.90
2023-03-15T22:44:30.795Z,99.90
2023-03-15T22:47:33.989Z,99.90
2023-03-15T22:50:37.230Z,99.90
2023-03-15T22:53:41.959Z,99.90
2023-03-15T22:56:45.143Z,99.90
2023-03-15T22:59:48.389Z,99.90
2023-03-15T23:02:51.876Z,99.90
2023-03-15T23:05:55.642Z,99.90
2023-03-15T23:09:00.822Z,99.90
2023-03-15T23:12:04.250Z,99.90
2023-03-15T23:15:08.833Z,99.90
2023-03-15T23:18:13.926Z,99.90
2023-03-15T23:21:17.145Z,98.90
2023-03-15T23:24:24.654Z,96.20
2023-03-15T23:27:28.048Z,98.40
2023-03-15T23:30:35.130Z,98.70
2023-03-15T23:33:38.996Z,99.30
2023-03-15T23:36:44.113Z,99.90
2023-03-15T23:39:49.945Z,99.90
2023-03-15T23:42:59.040Z,99.90
2023-03-15T23:46:04.816Z,99.90
2023-03-15T23:49:09.615Z,99.90
2023-03-15T23:52:12.932Z,99.90
2023-03-15T23:55:17.789Z,99.90
2023-03-15T23:58:21.407Z,99.90
